Time;durP1;ratioP1;P1;durP2;ratioP2;P2;SDS_P1;SDS_P2;PMS_P1;PMS_P2;Temp;Humidity;BMP_temperature;BMP_pressure;BME280_temperature;BME280_humidity;BME280_pressure;Samples;Min_cycle;Max_cycle;Signal;HPM_P1;HPM_P2
2022/02/10 00:06:02;;;;;;;11.95;6.00;;;;;;;;;;6344836;28;20039;-73
2022/02/10 00:16:01;;;;;;;10.63;5.68;;;;;;;;;;6348772;28;20056;-73
2022/02/10 00:19:30;;;;;;;9.70;4.88;;;;;;;;;;6347273;28;20054;-74
2022/02/10 00:22:45;;;;;;;14.90;5.20;;;;;;;;;;6346976;28;20052;-73
2022/02/10 00:35:54;;;;;;;13.68;5.90;;;;;;;;;;6345933;28;20478;-73
2022/02/10 00:39:11;;;;;;;13.10;5.40;;;;;;;;;;6346290;28;20122;-73
2022/02/10 00:42:17;;;;;;;11.65;5.85;;;;;;;;;;6329196;28;20052;-73
2022/02/10 00:45:20;;;;;;;10.73;5.70;;;;;;;;;;6346170;28;20051;-76
2022/02/10 00:48:26;;;;;;;10.90;5.20;;;;;;;;;;6347284;28;20048;-74
2022/02/10 00:51:30;;;;;;;13.45;5.88;;;;;;;;;;6347127;28;20115;-74
2022/02/10 00:54:37;;;;;;;10.80;5.95;;;;;;;;;;6346186;28;20046;-74
2022/02/10 00:57:40;;;;;;;11.07;5.57;;;;;;;;;;6345907;28;20058;-73
2022/02/10 01:10:58;;;;;;;15.32;6.53;;;;;;;;;;6313026;28;20104;-77
2022/02/10 01:14:07;;;;;;;12.90;5.60;;;;;;;;;;6345398;28;20097;-76
2022/02/10 01:30:51;;;;;;;11.60;5.93;;;;;;;;;;6345135;28;20499;-74
2022/02/10 01:33:54;;;;;;;13.32;5.55;;;;;;;;;;6344030;28;20066;-74
2022/02/10 01:36:57;;;;;;;10.82;5.07;;;;;;;;;;6344642;28;20066;-74
2022/02/10 01:40:09;;;;;;;10.95;5.10;;;;;;;;;;6344693;28;20043;-74
2022/02/10 01:57:43;;;;;;;10.75;5.25;;;;;;;;;;6345470;28;20055;-75
2022/02/10 02:03:45;;;;;;;11.93;5.93;;;;;;;;;;6342871;28;20044;-75
2022/02/10 02:06:50;;;;;;;12.75;5.60;;;;;;;;;;6344093;28;20054;-77
2022/02/10 02:09:53;;;;;;;11.48;6.03;;;;;;;;;;6345161;28;20127;-76
2022/02/10 02:12:58;;;;;;;12.00;5.95;;;;;;;;;;6342479;28;20101;-77
2022/02/10 02:16:02;;;;;;;11.77;5.93;;;;;;;;;;6344954;28;20052;-76
2022/02/10 02:19:05;;;;;;;12.07;5.45;;;;;;;;;;6344921;28;20051;-77
2022/02/10 02:22:13;;;;;;;16.40;6.18;;;;;;;;;;6342229;28;20056;-76
2022/02/10 02:25:17;;;;;;;11.50;5.55;;;;;;;;;;6343081;28;20362;-77
2022/02/10 02:28:20;;;;;;;10.13;5.10;;;;;;;;;;6344752;28;20047;-77
2022/02/10 02:31:31;;;;;;;11.15;5.30;;;;;;;;;;6342520;28;20048;-76
2022/02/10 02:35:03;;;;;;;14.98;4.80;;;;;;;;;;6343332;28;20148;-76
2022/02/10 02:38:34;;;;;;;11.13;5.68;;;;;;;;;;6342952;28;20100;-76
2022/02/10 03:05:20;;;;;;;7.65;4.15;;;;;;;;;;6342951;28;20528;-76
2022/02/10 03:08:24;;;;;;;9.02;4.90;;;;;;;;;;6343016;28;20035;-77
2022/02/10 03:11:29;;;;;;;9.05;4.70;;;;;;;;;;6342641;28;20039;-78
2022/02/10 03:14:37;;;;;;;9.32;5.10;;;;;;;;;;6341341;28;20138;-77
2022/02/10 03:17:46;;;;;;;9.80;4.85;;;;;;;;;;6341031;28;20390;-77
2022/02/10 03:21:09;;;;;;;11.90;4.95;;;;;;;;;;6341993;28;20047;-78
2022/02/10 04:05:00;;;;;;;9.95;4.45;;;;;;;;;;6347026;28;20051;-76
2022/02/10 04:08:24;;;;;;;8.05;4.60;;;;;;;;;;6347072;28;20178;-76
2022/02/10 04:11:46;;;;;;;7.30;4.43;;;;;;;;;;6345546;28;20059;-77
2022/02/10 04:14:54;;;;;;;6.95;4.32;;;;;;;;;;6345718;28;20657;-78
2022/02/10 04:21:33;;;;;;;7.05;4.53;;;;;;;;;;6312819;28;20051;-77
2022/02/10 04:25:09;;;;;;;10.20;4.95;;;;;;;;;;6343396;28;20496;-76
2022/02/10 04:28:26;;;;;;;8.90;5.45;;;;;;;;;;6344251;28;20055;-77
2022/02/10 04:32:05;;;;;;;10.10;4.88;;;;;;;;;;6344763;28;20040;-77
2022/02/10 04:39:09;;;;;;;9.65;5.07;;;;;;;;;;6345994;28;20467;-77
2022/02/10 04:55:48;;;;;;;8.20;5.20;;;;;;;;;;6344843;28;20130;-76
2022/02/10 04:59:11;;;;;;;11.63;6.07;;;;;;;;;;6343406;28;20051;-76
2022/02/10 05:22:46;;;;;;;8.97;5.77;;;;;;;;;;6343141;28;20047;-77
2022/02/10 05:36:00;;;;;;;11.65;6.30;;;;;;;;;;6338711;28;20107;-77
2022/02/10 05:39:10;;;;;;;11.95;6.00;;;;;;;;;;6343513;28;20451;-78
2022/02/10 05:42:39;;;;;;;10.02;5.75;;;;;;;;;;6341841;28;20040;-77
2022/02/10 05:45:47;;;;;;;14.27;6.43;;;;;;;;;;6343319;28;20807;-79
2022/02/10 05:49:14;;;;;;;12.05;5.95;;;;;;;;;;6343879;28;20043;-80
2022/02/10 05:56:05;;;;;;;12.02;6.40;;;;;;;;;;6310566;28;20161;-76
2022/02/10 06:49:50;;;;;;;15.05;8.77;;;;;;;;;;6342983;28;20052;-78
2022/02/10 06:53:05;;;;;;;15.82;7.72;;;;;;;;;;6339878;28;20055;-79
2022/02/10 07:03:37;;;;;;;17.95;9.88;;;;;;;;;;6305720;28;20058;-80
2022/02/10 07:07:01;;;;;;;14.65;8.02;;;;;;;;;;6341452;28;20409;-77
2022/02/10 07:10:34;;;;;;;15.10;8.43;;;;;;;;;;6340749;28;20127;-78
2022/02/10 07:17:21;;;;;;;14.05;7.55;;;;;;;;;;6307536;28;20063;-78
2022/02/10 07:57:30;;;;;;;14.07;8.07;;;;;;;;;;6342006;28;20048;-78
2022/02/10 08:00:58;;;;;;;13.95;8.60;;;;;;;;;;6341015;28;20058;-76
2022/02/10 08:55:14;;;;;;;13.93;5.68;;;;;;;;;;6342918;28;20047;-78
2022/02/10 09:02:09;;;;;;;9.90;5.60;;;;;;;;;;6335219;28;20056;-77
2022/02/10 09:05:27;;;;;;;11.82;5.25;;;;;;;;;;6343882;28;20066;-77
2022/02/10 09:15:55;;;;;;;10.90;7.10;;;;;;;;;;6344164;28;20391;-78
2022/02/10 09:19:20;;;;;;;13.68;7.20;;;;;;;;;;6343767;28;20101;-78
2022/02/10 09:56:45;;;;;;;8.35;5.03;;;;;;;;;;6340795;28;20051;-77
2022/02/10 10:00:04;;;;;;;11.40;6.38;;;;;;;;;;6343591;28;20421;-74
2022/02/10 10:03:22;;;;;;;10.90;6.90;;;;;;;;;;6344187;28;20047;-76
2022/02/10 10:06:40;;;;;;;10.93;6.25;;;;;;;;;;6342315;28;20165;-76
2022/02/10 10:09:54;;;;;;;11.80;6.80;;;;;;;;;;6340724;28;20096;-77
2022/02/10 10:13:30;;;;;;;8.27;6.00;;;;;;;;;;6343377;28;20402;-77
2022/02/10 10:23:35;;;;;;;12.00;7.07;;;;;;;;;;6341717;28;20093;-77
2022/02/10 10:50:59;;;;;;;7.38;5.18;;;;;;;;;;6315904;28;20056;-75
2022/02/10 10:54:13;;;;;;;11.50;5.60;;;;;;;;;;6340598;28;20054;-77
2022/02/10 10:57:21;;;;;;;8.55;4.63;;;;;;;;;;6339788;28;20040;-76
2022/02/10 11:00:38;;;;;;;10.98;8.18;;;;;;;;;;6343150;28;20051;-76
2022/02/10 11:04:30;;;;;;;14.57;8.32;;;;;;;;;;6341572;28;20450;-76
2022/02/10 11:38:31;;;;;;;18.80;11.23;;;;;;;;;;6337859;28;20494;-78
2022/02/10 11:41:46;;;;;;;18.63;11.15;;;;;;;;;;6335665;28;20039;-78
2022/02/10 11:45:28;;;;;;;16.15;10.68;;;;;;;;;;6334871;28;20043;-77
2022/02/10 12:30:42;;;;;;;7.63;5.53;;;;;;;;;;6337661;28;20036;-78
2022/02/10 12:37:18;;;;;;;7.93;4.90;;;;;;;;;;6326392;28;20462;-79
2022/02/10 14:09:46;;;;;;;10.07;6.22;;;;;;;;;;6326600;28;20051;-78
2022/02/10 14:12:58;;;;;;;11.95;7.05;;;;;;;;;;6339821;28;20058;-78
2022/02/10 14:16:29;;;;;;;11.18;6.13;;;;;;;;;;6340512;28;20062;-77
2022/02/10 14:19:40;;;;;;;11.95;7.05;;;;;;;;;;6341223;28;20486;-77
2022/02/10 14:22:53;;;;;;;10.43;6.50;;;;;;;;;;6340900;28;20427;-77
2022/02/10 14:26:02;;;;;;;15.23;9.02;;;;;;;;;;6339527;28;20048;-77
2022/02/10 14:29:08;;;;;;;12.65;7.45;;;;;;;;;;6340565;27;20062;-77
2022/02/10 14:32:15;;;;;;;11.98;7.28;;;;;;;;;;6339908;28;20436;-78
2022/02/10 14:35:24;;;;;;;11.27;7.65;;;;;;;;;;6341491;28;20043;-78
2022/02/10 14:38:42;;;;;;;10.98;6.63;;;;;;;;;;6339140;28;20039;-77
2022/02/10 15:29:27;;;;;;;10.52;5.72;;;;;;;;;;6337778;28;20044;-77
2022/02/10 15:36:15;;;;;;;10.10;5.28;;;;;;;;;;6338817;28;20123;-77
2022/02/10 15:49:42;;;;;;;13.23;6.05;;;;;;;;;;6337073;28;20455;-78
2022/02/10 15:53:36;;;;;;;13.20;5.13;;;;;;;;;;6335257;28;20046;-77
2022/02/10 15:56:57;;;;;;;12.18;6.03;;;;;;;;;;6337713;28;20045;-77
2022/02/10 16:16:55;;;;;;;11.15;6.30;;;;;;;;;;6335704;28;20055;-78
2022/02/10 16:20:06;;;;;;;13.73;6.25;;;;;;;;;;6336366;28;20039;-78
2022/02/10 16:23:16;;;;;;;12.63;6.15;;;;;;;;;;6334816;28;20117;-79
2022/02/10 16:26:24;;;;;;;15.13;6.43;;;;;;;;;;6336662;28;20039;-79
2022/02/10 16:29:28;;;;;;;11.57;6.22;;;;;;;;;;6336876;28;20043;-77
2022/02/10 16:32:34;;;;;;;99.85;56.30;;;;;;;;;;6334546;28;20047;-81
2022/02/10 16:35:45;;;;;;;29.55;14.30;;;;;;;;;;6336630;28;20047;-81
2022/02/10 16:38:53;;;;;;;17.42;6.93;;;;;;;;;;6335005;28;20058;-81
2022/02/10 16:42:04;;;;;;;14.27;5.80;;;;;;;;;;6334804;28;20498;-80
2022/02/10 16:45:12;;;;;;;12.95;6.38;;;;;;;;;;6334507;28;20051;-79
2022/02/10 16:48:20;;;;;;;14.65;6.35;;;;;;;;;;6335825;28;20181;-80
2022/02/10 16:51:28;;;;;;;11.85;7.38;;;;;;;;;;6336408;28;20040;-80
2022/02/10 16:54:43;;;;;;;16.60;6.50;;;;;;;;;;6335599;28;20494;-81
2022/02/10 16:58:08;;;;;;;14.10;6.38;;;;;;;;;;6334615;28;20529;-80
2022/02/10 17:05:27;;;;;;;18.08;7.45;;;;;;;;;;6282563;28;20056;-80
2022/02/10 17:19:08;;;;;;;17.52;7.85;;;;;;;;;;6326748;28;20549;-78
2022/02/10 17:25:35;;;;;;;24.25;9.02;;;;;;;;;;6335503;28;20063;-77
2022/02/10 17:28:40;;;;;;;19.92;8.52;;;;;;;;;;6334348;28;20181;-78
2022/02/10 17:32:04;;;;;;;15.98;7.50;;;;;;;;;;6335715;28;20366;-80
2022/02/10 17:42:12;;;;;;;16.48;7.20;;;;;;;;;;6339551;28;20128;-77
2022/02/10 17:45:37;;;;;;;21.15;7.85;;;;;;;;;;6341649;28;20047;-77
2022/02/10 17:52:11;;;;;;;14.73;6.20;;;;;;;;;;6346052;28;20047;-75
2022/02/10 17:55:16;;;;;;;19.73;7.93;;;;;;;;;;6345284;28;20126;-77
2022/02/10 17:58:22;;;;;;;19.52;7.43;;;;;;;;;;6344187;28;20070;-77
2022/02/10 18:01:25;;;;;;;14.63;7.40;;;;;;;;;;6345869;28;20130;-77
2022/02/10 18:04:30;;;;;;;13.50;6.90;;;;;;;;;;6345177;28;20047;-77
2022/02/10 18:07:33;;;;;;;13.50;7.07;;;;;;;;;;6343864;28;20173;-76
2022/02/10 18:13:58;;;;;;;16.60;7.35;;;;;;;;;;6345299;28;20092;-77
2022/02/10 18:17:09;;;;;;;13.82;6.93;;;;;;;;;;6345080;28;20152;-76
2022/02/10 18:20:18;;;;;;;14.38;6.55;;;;;;;;;;6343884;28;20047;-76
2022/02/10 18:23:31;;;;;;;14.82;7.10;;;;;;;;;;6345441;28;20093;-76
2022/02/10 18:26:56;;;;;;;17.52;6.88;;;;;;;;;;6344893;28;20035;-77
2022/02/10 18:30:20;;;;;;;16.58;7.55;;;;;;;;;;6343452;28;20048;-75
2022/02/10 19:07:36;;;;;;;21.10;8.98;;;;;;;;;;6342058;28;20187;-76
2022/02/10 19:10:45;;;;;;;15.95;8.43;;;;;;;;;;6344043;28;20463;-77
2022/02/10 19:13:52;;;;;;;24.70;8.27;;;;;;;;;;6343428;28;20043;-76
2022/02/10 19:16:55;;;;;;;16.85;8.38;;;;;;;;;;6344093;28;20043;-79
2022/02/10 19:19:58;;;;;;;15.20;7.65;;;;;;;;;;6344268;28;20046;-76
2022/02/10 19:23:06;;;;;;;21.00;9.15;;;;;;;;;;6343444;28;20084;-79
2022/02/10 19:26:10;;;;;;;15.30;7.88;;;;;;;;;;6342397;28;20059;-74
2022/02/10 19:29:16;;;;;;;26.40;9.45;;;;;;;;;;6343432;28;20051;-75
2022/02/10 19:32:20;;;;;;;18.65;9.77;;;;;;;;;;6342159;28;20185;-74
2022/02/10 19:35:25;;;;;;;20.42;8.30;;;;;;;;;;6341658;28;20103;-74
2022/02/10 19:38:30;;;;;;;18.33;8.55;;;;;;;;;;6343334;28;20474;-75
2022/02/10 19:41:40;;;;;;;22.65;9.35;;;;;;;;;;6343511;28;20066;-74
2022/02/10 19:44:43;;;;;;;18.35;9.10;;;;;;;;;;6341446;28;20127;-75
2022/02/10 19:47:46;;;;;;;19.80;9.25;;;;;;;;;;6341541;28;20048;-74
2022/02/10 19:50:51;;;;;;;20.80;9.65;;;;;;;;;;6341772;28;20055;-75
2022/02/10 19:53:56;;;;;;;21.00;9.15;;;;;;;;;;6342647;28;20504;-75
2022/02/10 19:57:03;;;;;;;20.90;9.85;;;;;;;;;;6341055;28;20036;-72
2022/02/10 20:00:10;;;;;;;19.08;9.10;;;;;;;;;;6342859;28;20536;-74
2022/02/10 20:03:16;;;;;;;16.83;9.02;;;;;;;;;;6343071;28;20050;-75
2022/02/10 20:06:18;;;;;;;;;;;;;;;;;;6341597;28;20491;-73
2022/02/10 20:09:21;;;;;;;24.05;10.02;;;;;;;;;;6342742;28;20019;-74
2022/02/10 20:12:26;;;;;;;15.65;8.00;;;;;;;;;;6343400;28;20047;-74
2022/02/10 20:15:33;;;;;;;18.48;8.43;;;;;;;;;;6340722;28;20051;-74
2022/02/10 20:18:36;;;;;;;16.15;8.35;;;;;;;;;;6342558;28;20043;-74
2022/02/10 20:21:39;;;;;;;18.75;9.07;;;;;;;;;;6340514;28;20075;-74
2022/02/10 20:24:45;;;;;;;16.42;8.13;;;;;;;;;;6341131;28;20048;-75
2022/02/10 20:27:49;;;;;;;18.92;8.95;;;;;;;;;;6341899;28;20055;-74
2022/02/10 20:30:55;;;;;;;21.33;9.77;;;;;;;;;;6340940;28;20146;-75
2022/02/10 20:33:58;;;;;;;19.58;9.52;;;;;;;;;;6342515;28;20160;-75
2022/02/10 20:37:04;;;;;;;18.33;9.85;;;;;;;;;;6340520;28;20048;-75
2022/02/10 20:40:08;;;;;;;19.67;9.55;;;;;;;;;;6342583;28;20043;-76
2022/02/10 20:43:13;;;;;;;;;;;;;;;;;;6343162;27;20102;-76
2022/02/10 20:46:19;;;;;;;23.10;9.45;;;;;;;;;;6341997;28;19919;-77
2022/02/10 20:49:27;;;;;;;17.45;9.70;;;;;;;;;;6342651;28;20048;-78
2022/02/10 20:52:31;;;;;;;18.85;10.30;;;;;;;;;;6340704;28;20239;-76
2022/02/10 20:55:34;;;;;;;17.73;10.23;;;;;;;;;;6342174;28;20043;-76
2022/02/10 20:58:38;;;;;;;17.73;9.52;;;;;;;;;;6340544;28;20093;-76
2022/02/10 21:01:46;;;;;;;18.70;9.95;;;;;;;;;;6340073;28;20044;-78
2022/02/10 21:04:55;;;;;;;23.83;10.60;;;;;;;;;;6340542;28;20054;-75
2022/02/10 21:08:08;;;;;;;20.13;10.35;;;;;;;;;;6342688;28;20047;-75
2022/02/10 21:11:15;;;;;;;22.15;9.55;;;;;;;;;;6347030;28;20389;-76
2022/02/10 21:14:20;;;;;;;22.23;9.90;;;;;;;;;;6346870;28;20047;-77
2022/02/10 21:17:26;;;;;;;19.20;9.40;;;;;;;;;;6346847;28;20096;-76
2022/02/10 21:20:34;;;;;;;21.42;10.23;;;;;;;;;;6345003;28;20097;-78
2022/02/10 21:23:48;;;;;;;17.25;9.57;;;;;;;;;;6345325;28;20048;-77
2022/02/10 21:27:07;;;;;;;19.30;9.75;;;;;;;;;;6345413;28;20043;-75
2022/02/10 21:30:10;;;;;;;17.20;9.38;;;;;;;;;;6344180;28;20039;-74
2022/02/10 21:33:22;;;;;;;16.75;9.68;;;;;;;;;;6346526;28;20097;-76
2022/02/10 21:39:54;;;;;;;19.27;10.63;;;;;;;;;;6345640;28;20152;-76
2022/02/10 21:57:24;;;;;;;22.30;11.57;;;;;;;;;;6335435;28;20060;-79
2022/02/10 22:10:51;;;;;;;20.23;10.43;;;;;;;;;;6311149;28;20730;-79
2022/02/10 22:17:42;;;;;;;19.85;10.57;;;;;;;;;;6345003;28;20043;-80
2022/02/10 22:20:55;;;;;;;20.23;10.23;;;;;;;;;;6345546;28;20067;-78
2022/02/10 22:24:07;;;;;;;20.48;11.30;;;;;;;;;;6345065;28;20486;-78
2022/02/10 22:27:10;;;;;;;18.60;9.60;;;;;;;;;;6343908;28;20067;-77
2022/02/10 22:30:21;;;;;;;20.42;9.95;;;;;;;;;;6343737;28;20052;-79
2022/02/10 22:33:29;;;;;;;15.50;9.00;;;;;;;;;;6344926;28;20039;-80
2022/02/10 22:36:43;;;;;;;18.52;10.00;;;;;;;;;;6344949;28;20530;-79
2022/02/10 22:39:52;;;;;;;22.00;10.40;;;;;;;;;;6342608;28;20067;-85
2022/02/10 22:43:15;;;;;;;20.07;10.27;;;;;;;;;;6337131;28;20490;-84
2022/02/10 22:46:18;;;;;;;17.88;9.65;;;;;;;;;;6336692;28;20761;-88
2022/02/10 22:49:21;;;;;;;18.23;10.27;;;;;;;;;;6337255;28;20506;-82
2022/02/10 22:52:24;;;;;;;18.48;10.60;;;;;;;;;;6336350;28;20059;-78
2022/02/10 22:55:29;;;;;;;20.88;10.00;;;;;;;;;;6336317;28;20130;-79
2022/02/10 22:58:32;;;;;;;19.08;10.30;;;;;;;;;;6337977;28;20047;-79
2022/02/10 23:01:37;;;;;;;19.20;10.07;;;;;;;;;;6336731;28;20043;-82
2022/02/10 23:04:42;;;;;;;20.48;10.10;;;;;;;;;;6337463;28;20287;-81
2022/02/10 23:07:45;;;;;;;19.80;10.52;;;;;;;;;;6334026;28;20046;-81
2022/02/10 23:10:51;;;;;;;18.05;10.68;;;;;;;;;;6330462;28;20048;-81
2022/02/10 23:13:57;;;;;;;16.63;9.27;;;;;;;;;;6324230;27;20043;-81
2022/02/10 23:17:00;;;;;;;20.10;10.40;;;;;;;;;;6333863;27;20521;-80
2022/02/10 23:20:04;;;;;;;17.08;9.65;;;;;;;;;;6306353;28;20508;-81
2022/02/10 23:23:08;;;;;;;19.55;9.75;;;;;;;;;;6306184;28;20191;-81
2022/02/10 23:26:13;;;;;;;15.02;8.95;;;;;;;;;;6305938;28;20371;-82
2022/02/10 23:29:16;;;;;;;18.40;9.68;;;;;;;;;;6306334;28;20071;-77
2022/02/10 23:32:19;;;;;;;20.33;10.45;;;;;;;;;;6306976;28;20439;-79
2022/02/10 23:36:01;;;;;;;18.75;9.40;;;;;;;;;;6331670;28;20108;-79
2022/02/10 23:38:58;;;;;;;17.05;9.38;;;;;;;;;;6331598;28;20525;-77
2022/02/10 23:42:08;;;;;;;17.33;9.60;;;;;;;;;;6331996;28;20070;-77
2022/02/10 23:45:18;;;;;;;17.35;9.05;;;;;;;;;;6331449;28;20038;-78
2022/02/10 23:48:21;;;;;;;23.88;11.38;;;;;;;;;;6333407;28;20046;-78
2022/02/10 23:51:31;;;;;;;14.40;8.55;;;;;;;;;;6309343;28;20036;-79
2022/02/10 23:54:36;;;;;;;18.48;9.57;;;;;;;;;;6318576;28;20070;-79
2022/02/10 23:57:49;;;;;;;16.25;8.88;;;;;;;;;;6311157;28;20054;-78
